Fall River, WI (53932)

4:36 PM CST on January 29, 2015 (GMT -0600)
Vista Circle | Change Station
CLOSE
Current Station
Personal Weather Station
Location: Columbus, WI
Elevation: 384 ft
Nearby Weather Stations

Elev 384 ft 43.32 °N, 89.03 °W | Updated 12 seconds ago

Overcast
Overcast
33.8 °F
Feels Like 24 °F
N
15.0
Wind Variable Wind from NW
Gusts 22.0 mph

Today
High -- | Low -- °F
--% Chance of Precip.
Yesterday
High -- | Low -- °F
Precip. -- in
7:15 AM 5:03 PM
Waxing Gibbous, 77% visible
Pressure 30.08 in
Visibility 10.0 miles
Clouds Overcast 3400 ft
Windchill 24 °F
Dew Point 22 °F
Humidity 63%
Rainfall 0.00 in
Snow Depth Not available.
UV 0 out of 12
Pollen .10 out of 12
Air Quality Not available.
Flu Activity Not available.
METAR KUNU 292215Z AUTO 31009G14KT 10SM OVC034 00/M05 A3008 RMK AO2 T00011048

More Conditions Fewer Conditions

Pressure 30.08 in
Visibility 10.0 miles
Clouds Overcast 3400 ft
Windchill 24 °F
Dew Point 22 °F
Humidity 63%
Rainfall 0.00 in
Snow Depth Not available.
UV 0 out of 12
Pollen .10 out of 12
Air Quality Not available.
Flu Activity Not available.
METAR KUNU 292215Z AUTO 31009G14KT 10SM OVC034 00/M05 A3008 RMK AO2 T00011048

More Conditions Fewer Conditions

10-Day Weather Forecast

Almanac

Astronomy

Jan. 29, 2015 Rise Set
Actual Time
Civil Twilight
Nautical Twilight
Astronomical Twilight
Moon
Length of Visible Light
Length of Day
Tomorrow will be .
, % of the Moon is Illuminated

Today's Extremes

State Highs State Lows

Community

WunderPhotos

Upload Photos

1,791,632 photos uploaded!

WunderBlogs® & News

Nearby

Air Quality

  Air Quality AQ Index Pollutant
Not available.

Snow Depth

Station Depth Elevation

Earthquake Activity

City Distance Mag. Time & Date
Minimum magnitude displayed is 2.5.

Coastal Water Temperatures

Place Temperature

Nearby Weather Stations